sensor_id;sensor_type;location;lat;lon;timestamp;P1;durP1;ratioP1;P2;durP2;ratioP2
74510;SDS011;62991;50.040;18.400;2022-12-07T00:01:29;18.65;;;6.57;;
74510;SDS011;62991;50.040;18.400;2022-12-07T00:04:34;17.63;;;5.47;;
74510;SDS011;62991;50.040;18.400;2022-12-07T00:07:35;15.23;;;5.57;;
74510;SDS011;62991;50.040;18.400;2022-12-07T00:10:35;11.32;;;5.38;;
74510;SDS011;62991;50.040;18.400;2022-12-07T00:13:36;10.50;;;3.47;;
74510;SDS011;62991;50.040;18.400;2022-12-07T00:16:38;13.00;;;5.90;;
74510;SDS011;62991;50.040;18.400;2022-12-07T00:19:39;18.15;;;7.63;;
74510;SDS011;62991;50.040;18.400;2022-12-07T00:22:40;11.40;;;6.28;;
74510;SDS011;62991;50.040;18.400;2022-12-07T00:25:40;18.05;;;7.45;;
74510;SDS011;62991;50.040;18.400;2022-12-07T00:28:41;16.05;;;6.30;;
74510;SDS011;62991;50.040;18.400;2022-12-07T00:31:48;16.13;;;7.10;;
74510;SDS011;62991;50.040;18.400;2022-12-07T00:34:49;12.27;;;5.70;;
74510;SDS011;62991;50.040;18.400;2022-12-07T00:37:49;20.70;;;8.20;;
74510;SDS011;62991;50.040;18.400;2022-12-07T00:40:57;13.05;;;6.18;;
74510;SDS011;62991;50.040;18.400;2022-12-07T00:43:59;10.75;;;5.75;;
74510;SDS011;62991;50.040;18.400;2022-12-07T00:46:59;17.58;;;6.93;;
74510;SDS011;62991;50.040;18.400;2022-12-07T00:50:00;14.75;;;6.82;;
74510;SDS011;62991;50.040;18.400;2022-12-07T00:53:01;10.68;;;5.05;;
74510;SDS011;62991;50.040;18.400;2022-12-07T00:56:12;11.82;;;5.65;;
74510;SDS011;62991;50.040;18.400;2022-12-07T00:59:14;19.45;;;6.82;;
74510;SDS011;62991;50.040;18.400;2022-12-07T01:02:15;15.23;;;5.50;;
74510;SDS011;62991;50.040;18.400;2022-12-07T01:05:15;14.48;;;6.95;;
74510;SDS011;62991;50.040;18.400;2022-12-07T01:08:16;8.07;;;4.85;;
74510;SDS011;62991;50.040;18.400;2022-12-07T01:11:18;12.35;;;5.32;;
74510;SDS011;62991;50.040;18.400;2022-12-07T01:14:20;12.10;;;6.30;;
74510;SDS011;62991;50.040;18.400;2022-12-07T01:17:21;11.00;;;6.60;;
74510;SDS011;62991;50.040;18.400;2022-12-07T01:20:21;11.70;;;6.82;;
74510;SDS011;62991;50.040;18.400;2022-12-07T01:23:22;10.45;;;5.53;;
74510;SDS011;62991;50.040;18.400;2022-12-07T01:26:23;12.65;;;6.15;;
74510;SDS011;62991;50.040;18.400;2022-12-07T01:29:25;10.93;;;4.88;;
74510;SDS011;62991;50.040;18.400;2022-12-07T01:32:26;12.00;;;5.90;;
74510;SDS011;62991;50.040;18.400;2022-12-07T01:35:27;13.18;;;5.57;;
74510;SDS011;62991;50.040;18.400;2022-12-07T01:38:28;9.05;;;4.82;;
74510;SDS011;62991;50.040;18.400;2022-12-07T01:41:30;13.25;;;5.32;;
74510;SDS011;62991;50.040;18.400;2022-12-07T01:45:15;15.25;;;5.25;;
74510;SDS011;62991;50.040;18.400;2022-12-07T01:48:27;9.00;;;4.55;;
74510;SDS011;62991;50.040;18.400;2022-12-07T01:51:38;11.38;;;3.20;;
74510;SDS011;62991;50.040;18.400;2022-12-07T01:54:42;10.10;;;4.35;;
74510;SDS011;62991;50.040;18.400;2022-12-07T01:57:45;8.82;;;4.20;;
74510;SDS011;62991;50.040;18.400;2022-12-07T02:00:48;9.32;;;4.50;;
74510;SDS011;62991;50.040;18.400;2022-12-07T02:03:49;10.23;;;4.40;;
74510;SDS011;62991;50.040;18.400;2022-12-07T02:06:50;10.60;;;5.25;;
74510;SDS011;62991;50.040;18.400;2022-12-07T02:09:52;11.18;;;4.32;;
74510;SDS011;62991;50.040;18.400;2022-12-07T02:12:54;10.00;;;3.83;;
74510;SDS011;62991;50.040;18.400;2022-12-07T02:29:20;7.30;;;3.83;;
74510;SDS011;62991;50.040;18.400;2022-12-07T02:36:07;7.63;;;3.25;;
74510;SDS011;62991;50.040;18.400;2022-12-07T02:39:17;10.77;;;5.03;;
74510;SDS011;62991;50.040;18.400;2022-12-07T02:42:25;12.45;;;4.85;;
74510;SDS011;62991;50.040;18.400;2022-12-07T02:45:34;10.15;;;3.88;;
74510;SDS011;62991;50.040;18.400;2022-12-07T02:48:38;15.15;;;5.05;;
74510;SDS011;62991;50.040;18.400;2022-12-07T02:51:42;12.18;;;4.55;;
74510;SDS011;62991;50.040;18.400;2022-12-07T02:54:45;11.27;;;3.83;;
74510;SDS011;62991;50.040;18.400;2022-12-07T03:01:09;8.15;;;4.07;;
74510;SDS011;62991;50.040;18.400;2022-12-07T03:07:42;12.80;;;5.38;;
74510;SDS011;62991;50.040;18.400;2022-12-07T03:17:18;8.13;;;4.50;;
74510;SDS011;62991;50.040;18.400;2022-12-07T03:20:24;9.05;;;4.13;;
74510;SDS011;62991;50.040;18.400;2022-12-07T03:23:26;9.52;;;4.25;;
74510;SDS011;62991;50.040;18.400;2022-12-07T03:26:32;10.13;;;3.80;;
74510;SDS011;62991;50.040;18.400;2022-12-07T03:33:17;10.43;;;4.57;;
74510;SDS011;62991;50.040;18.400;2022-12-07T03:39:34;7.95;;;3.97;;
74510;SDS011;62991;50.040;18.400;2022-12-07T03:42:39;7.15;;;3.42;;
74510;SDS011;62991;50.040;18.400;2022-12-07T03:45:42;8.25;;;3.15;;
74510;SDS011;62991;50.040;18.400;2022-12-07T04:01:25;8.32;;;3.28;;
74510;SDS011;62991;50.040;18.400;2022-12-07T04:04:26;7.35;;;3.00;;
74510;SDS011;62991;50.040;18.400;2022-12-07T04:07:26;8.25;;;3.70;;
74510;SDS011;62991;50.040;18.400;2022-12-07T04:10:27;10.60;;;4.30;;
74510;SDS011;62991;50.040;18.400;2022-12-07T04:13:28;8.13;;;4.03;;
74510;SDS011;62991;50.040;18.400;2022-12-07T04:16:29;9.32;;;3.72;;
74510;SDS011;62991;50.040;18.400;2022-12-07T04:19:30;5.72;;;3.00;;
74510;SDS011;62991;50.040;18.400;2022-12-07T04:22:32;6.13;;;3.25;;
74510;SDS011;62991;50.040;18.400;2022-12-07T04:25:33;5.68;;;3.40;;
74510;SDS011;62991;50.040;18.400;2022-12-07T04:28:34;8.68;;;3.15;;
74510;SDS011;62991;50.040;18.400;2022-12-07T04:31:35;3.97;;;2.38;;
74510;SDS011;62991;50.040;18.400;2022-12-07T04:34:36;5.20;;;2.60;;
74510;SDS011;62991;50.040;18.400;2022-12-07T04:37:37;5.43;;;2.38;;
74510;SDS011;62991;50.040;18.400;2022-12-07T04:40:39;6.13;;;2.80;;
74510;SDS011;62991;50.040;18.400;2022-12-07T04:43:40;6.45;;;3.13;;
74510;SDS011;62991;50.040;18.400;2022-12-07T04:46:41;9.40;;;3.75;;
74510;SDS011;62991;50.040;18.400;2022-12-07T04:49:42;7.00;;;3.13;;
74510;SDS011;62991;50.040;18.400;2022-12-07T04:52:42;6.45;;;3.67;;
74510;SDS011;62991;50.040;18.400;2022-12-07T04:55:44;5.82;;;3.22;;
74510;SDS011;62991;50.040;18.400;2022-12-07T04:58:45;4.82;;;2.90;;
74510;SDS011;62991;50.040;18.400;2022-12-07T05:01:47;9.88;;;3.83;;
74510;SDS011;62991;50.040;18.400;2022-12-07T05:04:48;8.07;;;4.25;;
74510;SDS011;62991;50.040;18.400;2022-12-07T05:07:48;8.57;;;4.05;;
74510;SDS011;62991;50.040;18.400;2022-12-07T05:10:49;5.45;;;3.53;;
74510;SDS011;62991;50.040;18.400;2022-12-07T05:13:50;6.88;;;3.10;;
74510;SDS011;62991;50.040;18.400;2022-12-07T05:16:51;35.55;;;13.18;;
74510;SDS011;62991;50.040;18.400;2022-12-07T05:19:51;20.52;;;10.52;;
74510;SDS011;62991;50.040;18.400;2022-12-07T05:22:52;13.38;;;5.55;;
74510;SDS011;62991;50.040;18.400;2022-12-07T05:25:52;20.75;;;8.50;;
74510;SDS011;62991;50.040;18.400;2022-12-07T05:28:54;54.35;;;21.17;;
74510;SDS011;62991;50.040;18.400;2022-12-07T05:31:56;31.35;;;14.40;;
74510;SDS011;62991;50.040;18.400;2022-12-07T05:34:56;39.42;;;15.15;;
74510;SDS011;62991;50.040;18.400;2022-12-07T05:37:57;30.00;;;11.07;;
74510;SDS011;62991;50.040;18.400;2022-12-07T05:41:04;41.70;;;15.48;;
74510;SDS011;62991;50.040;18.400;2022-12-07T05:44:06;13.57;;;5.68;;
74510;SDS011;62991;50.040;18.400;2022-12-07T05:47:07;29.83;;;10.07;;
74510;SDS011;62991;50.040;18.400;2022-12-07T05:50:07;24.30;;;8.50;;
74510;SDS011;62991;50.040;18.400;2022-12-07T05:53:08;21.40;;;8.10;;
74510;SDS011;62991;50.040;18.400;2022-12-07T05:56:09;20.75;;;8.50;;
74510;SDS011;62991;50.040;18.400;2022-12-07T05:59:10;14.10;;;7.57;;
74510;SDS011;62991;50.040;18.400;2022-12-07T06:02:22;13.52;;;7.07;;
74510;SDS011;62991;50.040;18.400;2022-12-07T06:05:23;22.98;;;8.02;;
74510;SDS011;62991;50.040;18.400;2022-12-07T06:08:23;35.80;;;13.82;;
74510;SDS011;62991;50.040;18.400;2022-12-07T06:11:24;40.58;;;14.68;;
74510;SDS011;62991;50.040;18.400;2022-12-07T06:14:43;29.20;;;11.35;;
74510;SDS011;62991;50.040;18.400;2022-12-07T06:17:44;18.70;;;6.68;;
74510;SDS011;62991;50.040;18.400;2022-12-07T06:20:45;35.65;;;12.68;;
74510;SDS011;62991;50.040;18.400;2022-12-07T06:23:46;30.20;;;11.45;;
74510;SDS011;62991;50.040;18.400;2022-12-07T06:26:48;36.05;;;12.95;;
74510;SDS011;62991;50.040;18.400;2022-12-07T06:29:49;48.00;;;19.33;;
74510;SDS011;62991;50.040;18.400;2022-12-07T06:32:49;49.17;;;19.20;;
74510;SDS011;62991;50.040;18.400;2022-12-07T06:35:50;64.45;;;24.58;;
74510;SDS011;62991;50.040;18.400;2022-12-07T06:38:51;40.50;;;16.10;;
74510;SDS011;62991;50.040;18.400;2022-12-07T06:41:52;66.47;;;26.65;;
74510;SDS011;62991;50.040;18.400;2022-12-07T06:44:53;73.47;;;22.40;;
74510;SDS011;62991;50.040;18.400;2022-12-07T06:47:54;55.88;;;20.27;;
74510;SDS011;62991;50.040;18.400;2022-12-07T06:50:55;49.58;;;17.85;;
74510;SDS011;62991;50.040;18.400;2022-12-07T06:53:55;46.17;;;17.42;;
74510;SDS011;62991;50.040;18.400;2022-12-07T06:56:56;52.33;;;17.63;;
74510;SDS011;62991;50.040;18.400;2022-12-07T06:59:57;48.35;;;19.48;;
74510;SDS011;62991;50.040;18.400;2022-12-07T07:02:58;52.30;;;21.88;;
74510;SDS011;62991;50.040;18.400;2022-12-07T07:05:58;88.07;;;30.48;;
74510;SDS011;62991;50.040;18.400;2022-12-07T07:08:59;85.30;;;28.95;;
74510;SDS011;62991;50.040;18.400;2022-12-07T07:12:00;75.18;;;29.83;;
74510;SDS011;62991;50.040;18.400;2022-12-07T07:15:01;44.88;;;18.77;;
74510;SDS011;62991;50.040;18.400;2022-12-07T07:18:01;42.08;;;17.67;;
74510;SDS011;62991;50.040;18.400;2022-12-07T07:21:03;27.45;;;13.88;;
74510;SDS011;62991;50.040;18.400;2022-12-07T07:24:04;27.77;;;13.32;;
74510;SDS011;62991;50.040;18.400;2022-12-07T07:27:05;41.50;;;17.42;;
74510;SDS011;62991;50.040;18.400;2022-12-07T07:30:06;53.05;;;21.17;;
74510;SDS011;62991;50.040;18.400;2022-12-07T07:33:07;66.55;;;26.90;;
74510;SDS011;62991;50.040;18.400;2022-12-07T07:36:09;77.38;;;26.23;;
74510;SDS011;62991;50.040;18.400;2022-12-07T07:39:10;68.85;;;27.73;;
74510;SDS011;62991;50.040;18.400;2022-12-07T07:42:12;61.53;;;21.05;;
74510;SDS011;62991;50.040;18.400;2022-12-07T07:45:14;38.85;;;16.15;;
74510;SDS011;62991;50.040;18.400;2022-12-07T07:48:15;49.42;;;19.88;;
74510;SDS011;62991;50.040;18.400;2022-12-07T07:51:15;56.47;;;15.45;;
74510;SDS011;62991;50.040;18.400;2022-12-07T07:54:16;26.23;;;10.15;;
74510;SDS011;62991;50.040;18.400;2022-12-07T07:57:17;29.83;;;12.25;;
74510;SDS011;62991;50.040;18.400;2022-12-07T08:00:18;40.33;;;14.00;;
74510;SDS011;62991;50.040;18.400;2022-12-07T08:03:18;12.15;;;6.00;;
74510;SDS011;62991;50.040;18.400;2022-12-07T08:06:19;18.17;;;7.50;;
74510;SDS011;62991;50.040;18.400;2022-12-07T08:09:20;20.40;;;6.00;;
74510;SDS011;62991;50.040;18.400;2022-12-07T08:12:21;15.30;;;7.43;;
74510;SDS011;62991;50.040;18.400;2022-12-07T08:15:21;25.23;;;5.93;;
74510;SDS011;62991;50.040;18.400;2022-12-07T08:18:22;26.70;;;9.20;;
74510;SDS011;62991;50.040;18.400;2022-12-07T08:21:23;42.72;;;15.52;;
74510;SDS011;62991;50.040;18.400;2022-12-07T08:24:24;48.60;;;13.05;;
74510;SDS011;62991;50.040;18.400;2022-12-07T08:27:25;22.80;;;9.63;;
74510;SDS011;62991;50.040;18.400;2022-12-07T08:30:27;47.30;;;11.90;;
74510;SDS011;62991;50.040;18.400;2022-12-07T08:33:29;53.47;;;14.40;;
74510;SDS011;62991;50.040;18.400;2022-12-07T08:36:30;55.28;;;15.05;;
74510;SDS011;62991;50.040;18.400;2022-12-07T08:39:30;41.42;;;11.32;;
74510;SDS011;62991;50.040;18.400;2022-12-07T08:42:31;15.38;;;5.90;;
74510;SDS011;62991;50.040;18.400;2022-12-07T08:45:38;75.18;;;16.65;;
74510;SDS011;62991;50.040;18.400;2022-12-07T08:48:41;17.65;;;6.35;;
74510;SDS011;62991;50.040;18.400;2022-12-07T08:51:50;34.20;;;9.63;;
74510;SDS011;62991;50.040;18.400;2022-12-07T08:54:50;10.93;;;4.75;;
74510;SDS011;62991;50.040;18.400;2022-12-07T08:57:51;14.25;;;5.35;;
74510;SDS011;62991;50.040;18.400;2022-12-07T09:00:52;15.93;;;6.45;;
74510;SDS011;62991;50.040;18.400;2022-12-07T09:03:52;21.67;;;7.90;;
74510;SDS011;62991;50.040;18.400;2022-12-07T09:06:53;19.60;;;7.82;;
74510;SDS011;62991;50.040;18.400;2022-12-07T09:09:55;24.20;;;9.23;;
74510;SDS011;62991;50.040;18.400;2022-12-07T09:12:56;22.60;;;8.45;;
74510;SDS011;62991;50.040;18.400;2022-12-07T09:16:00;16.33;;;7.57;;
74510;SDS011;62991;50.040;18.400;2022-12-07T09:19:01;16.10;;;7.30;;
74510;SDS011;62991;50.040;18.400;2022-12-07T09:22:02;24.38;;;7.78;;
74510;SDS011;62991;50.040;18.400;2022-12-07T09:25:04;26.92;;;8.77;;
74510;SDS011;62991;50.040;18.400;2022-12-07T09:28:05;32.42;;;7.50;;
74510;SDS011;62991;50.040;18.400;2022-12-07T09:31:06;28.85;;;10.48;;
74510;SDS011;62991;50.040;18.400;2022-12-07T09:34:07;34.97;;;11.45;;
74510;SDS011;62991;50.040;18.400;2022-12-07T09:37:08;18.95;;;6.82;;
74510;SDS011;62991;50.040;18.400;2022-12-07T09:40:08;14.52;;;7.85;;
74510;SDS011;62991;50.040;18.400;2022-12-07T09:43:22;14.98;;;6.97;;
74510;SDS011;62991;50.040;18.400;2022-12-07T09:46:24;21.33;;;8.68;;
74510;SDS011;62991;50.040;18.400;2022-12-07T09:49:27;15.27;;;5.75;;
74510;SDS011;62991;50.040;18.400;2022-12-07T09:52:31;19.20;;;6.80;;
74510;SDS011;62991;50.040;18.400;2022-12-07T09:55:33;9.43;;;5.20;;
74510;SDS011;62991;50.040;18.400;2022-12-07T09:58:36;18.90;;;6.95;;
74510;SDS011;62991;50.040;18.400;2022-12-07T10:01:38;8.75;;;4.10;;
74510;SDS011;62991;50.040;18.400;2022-12-07T10:04:39;8.32;;;4.43;;
74510;SDS011;62991;50.040;18.400;2022-12-07T10:07:40;12.43;;;5.10;;
74510;SDS011;62991;50.040;18.400;2022-12-07T10:10:41;12.45;;;4.88;;
74510;SDS011;62991;50.040;18.400;2022-12-07T10:13:43;9.45;;;3.40;;
74510;SDS011;62991;50.040;18.400;2022-12-07T10:16:48;19.27;;;6.05;;
74510;SDS011;62991;50.040;18.400;2022-12-07T10:19:49;19.15;;;8.60;;
74510;SDS011;62991;50.040;18.400;2022-12-07T10:25:56;15.20;;;7.20;;
74510;SDS011;62991;50.040;18.400;2022-12-07T10:29:01;8.77;;;3.80;;
74510;SDS011;62991;50.040;18.400;2022-12-07T10:35:22;6.43;;;3.58;;
74510;SDS011;62991;50.040;18.400;2022-12-07T10:38:28;12.43;;;4.13;;
74510;SDS011;62991;50.040;18.400;2022-12-07T10:41:32;13.27;;;5.03;;
74510;SDS011;62991;50.040;18.400;2022-12-07T10:44:33;12.77;;;4.68;;
74510;SDS011;62991;50.040;18.400;2022-12-07T10:47:47;6.95;;;3.10;;
74510;SDS011;62991;50.040;18.400;2022-12-07T10:55:18;4.43;;;3.03;;
74510;SDS011;62991;50.040;18.400;2022-12-07T10:58:37;3.40;;;1.77;;
74510;SDS011;62991;50.040;18.400;2022-12-07T11:01:51;13.68;;;6.22;;
74510;SDS011;62991;50.040;18.400;2022-12-07T11:05:45;7.20;;;3.50;;
74510;SDS011;62991;50.040;18.400;2022-12-07T11:11:55;9.25;;;4.35;;
74510;SDS011;62991;50.040;18.400;2022-12-07T11:15:15;2.00;;;0.68;;
74510;SDS011;62991;50.040;18.400;2022-12-07T11:31:49;5.15;;;2.55;;
74510;SDS011;62991;50.040;18.400;2022-12-07T11:35:19;9.75;;;2.78;;
74510;SDS011;62991;50.040;18.400;2022-12-07T11:42:00;4.03;;;2.00;;
74510;SDS011;62991;50.040;18.400;2022-12-07T11:45:16;5.25;;;2.67;;
74510;SDS011;62991;50.040;18.400;2022-12-07T11:51:29;4.65;;;1.90;;
74510;SDS011;62991;50.040;18.400;2022-12-07T11:54:39;8.63;;;3.85;;
74510;SDS011;62991;50.040;18.400;2022-12-07T11:57:44;7.57;;;2.95;;
74510;SDS011;62991;50.040;18.400;2022-12-07T12:00:49;10.75;;;3.50;;
74510;SDS011;62991;50.040;18.400;2022-12-07T12:03:58;9.65;;;3.25;;
74510;SDS011;62991;50.040;18.400;2022-12-07T12:07:10;6.90;;;3.13;;
74510;SDS011;62991;50.040;18.400;2022-12-07T12:23:56;7.13;;;2.45;;
74510;SDS011;62991;50.040;18.400;2022-12-07T12:27:05;11.05;;;3.28;;
74510;SDS011;62991;50.040;18.400;2022-12-07T12:33:35;7.07;;;2.25;;
74510;SDS011;62991;50.040;18.400;2022-12-07T12:39:50;11.48;;;3.92;;
74510;SDS011;62991;50.040;18.400;2022-12-07T12:53:21;2.33;;;1.20;;
74510;SDS011;62991;50.040;18.400;2022-12-07T12:56:29;3.85;;;0.98;;
74510;SDS011;62991;50.040;18.400;2022-12-07T13:02:55;3.65;;;1.75;;
74510;SDS011;62991;50.040;18.400;2022-12-07T13:09:27;10.55;;;3.53;;
74510;SDS011;62991;50.040;18.400;2022-12-07T13:12:31;1.73;;;1.15;;
74510;SDS011;62991;50.040;18.400;2022-12-07T13:15:39;6.43;;;2.08;;
74510;SDS011;62991;50.040;18.400;2022-12-07T13:18:40;4.75;;;2.03;;
74510;SDS011;62991;50.040;18.400;2022-12-07T13:21:41;3.95;;;2.15;;
74510;SDS011;62991;50.040;18.400;2022-12-07T13:24:42;2.50;;;1.65;;
74510;SDS011;62991;50.040;18.400;2022-12-07T13:27:46;3.42;;;2.33;;
74510;SDS011;62991;50.040;18.400;2022-12-07T13:34:28;5.18;;;2.25;;
74510;SDS011;62991;50.040;18.400;2022-12-07T13:37:30;1.27;;;0.90;;
74510;SDS011;62991;50.040;18.400;2022-12-07T13:40:33;2.42;;;1.73;;
74510;SDS011;62991;50.040;18.400;2022-12-07T13:43:42;4.40;;;2.10;;
74510;SDS011;62991;50.040;18.400;2022-12-07T13:50:21;14.63;;;6.20;;
74510;SDS011;62991;50.040;18.400;2022-12-07T13:53:22;1.58;;;1.00;;
74510;SDS011;62991;50.040;18.400;2022-12-07T13:56:26;6.22;;;2.47;;
74510;SDS011;62991;50.040;18.400;2022-12-07T13:59:31;6.82;;;1.27;;
74510;SDS011;62991;50.040;18.400;2022-12-07T14:02:34;10.32;;;3.60;;
74510;SDS011;62991;50.040;18.400;2022-12-07T14:05:35;7.75;;;3.65;;
74510;SDS011;62991;50.040;18.400;2022-12-07T14:08:36;7.28;;;2.95;;
74510;SDS011;62991;50.040;18.400;2022-12-07T14:11:37;2.70;;;1.80;;
74510;SDS011;62991;50.040;18.400;2022-12-07T14:14:38;13.27;;;5.32;;
74510;SDS011;62991;50.040;18.400;2022-12-07T14:17:50;10.73;;;3.83;;
74510;SDS011;62991;50.040;18.400;2022-12-07T14:20:52;12.45;;;4.25;;
74510;SDS011;62991;50.040;18.400;2022-12-07T14:24:11;3.63;;;2.28;;
74510;SDS011;62991;50.040;18.400;2022-12-07T14:27:23;4.40;;;2.33;;
74510;SDS011;62991;50.040;18.400;2022-12-07T14:30:31;2.67;;;1.38;;
74510;SDS011;62991;50.040;18.400;2022-12-07T14:33:33;16.73;;;7.80;;
74510;SDS011;62991;50.040;18.400;2022-12-07T14:36:34;6.70;;;2.28;;
74510;SDS011;62991;50.040;18.400;2022-12-07T14:39:34;4.88;;;3.25;;
74510;SDS011;62991;50.040;18.400;2022-12-07T14:42:35;13.00;;;4.63;;
74510;SDS011;62991;50.040;18.400;2022-12-07T14:45:36;11.50;;;4.88;;
74510;SDS011;62991;50.040;18.400;2022-12-07T14:48:37;8.23;;;4.18;;
74510;SDS011;62991;50.040;18.400;2022-12-07T14:51:38;6.13;;;3.08;;
74510;SDS011;62991;50.040;18.400;2022-12-07T14:54:40;2.75;;;1.33;;
74510;SDS011;62991;50.040;18.400;2022-12-07T14:57:41;5.07;;;2.42;;
74510;SDS011;62991;50.040;18.400;2022-12-07T15:00:42;6.28;;;2.47;;
74510;SDS011;62991;50.040;18.400;2022-12-07T15:03:43;5.75;;;2.65;;
74510;SDS011;62991;50.040;18.400;2022-12-07T15:06:54;6.50;;;3.20;;
74510;SDS011;62991;50.040;18.400;2022-12-07T15:10:05;18.30;;;5.05;;
74510;SDS011;62991;50.040;18.400;2022-12-07T15:13:12;5.68;;;2.70;;
74510;SDS011;62991;50.040;18.400;2022-12-07T15:16:32;4.53;;;1.30;;
74510;SDS011;62991;50.040;18.400;2022-12-07T15:19:33;4.25;;;1.70;;
74510;SDS011;62991;50.040;18.400;2022-12-07T15:22:34;12.50;;;5.40;;
74510;SDS011;62991;50.040;18.400;2022-12-07T15:25:34;8.15;;;3.05;;
74510;SDS011;62991;50.040;18.400;2022-12-07T15:28:35;4.53;;;2.05;;
74510;SDS011;62991;50.040;18.400;2022-12-07T15:31:36;7.60;;;2.63;;
74510;SDS011;62991;50.040;18.400;2022-12-07T15:34:37;6.40;;;2.85;;
74510;SDS011;62991;50.040;18.400;2022-12-07T15:37:37;17.20;;;4.75;;
74510;SDS011;62991;50.040;18.400;2022-12-07T15:40:38;9.45;;;4.50;;
74510;SDS011;62991;50.040;18.400;2022-12-07T15:43:39;13.45;;;4.78;;
74510;SDS011;62991;50.040;18.400;2022-12-07T15:46:58;2.17;;;1.15;;
74510;SDS011;62991;50.040;18.400;2022-12-07T15:49:59;6.38;;;1.98;;
74510;SDS011;62991;50.040;18.400;2022-12-07T15:53:00;4.05;;;2.92;;
74510;SDS011;62991;50.040;18.400;2022-12-07T15:56:01;8.73;;;4.00;;
74510;SDS011;62991;50.040;18.400;2022-12-07T15:59:06;10.52;;;4.63;;
74510;SDS011;62991;50.040;18.400;2022-12-07T16:02:08;16.02;;;7.50;;
74510;SDS011;62991;50.040;18.400;2022-12-07T16:05:10;29.83;;;9.18;;
74510;SDS011;62991;50.040;18.400;2022-12-07T16:08:10;51.55;;;16.90;;
74510;SDS011;62991;50.040;18.400;2022-12-07T16:11:11;54.55;;;16.42;;
74510;SDS011;62991;50.040;18.400;2022-12-07T16:14:13;39.20;;;14.25;;
74510;SDS011;62991;50.040;18.400;2022-12-07T16:17:13;38.67;;;13.50;;
74510;SDS011;62991;50.040;18.400;2022-12-07T16:20:14;43.33;;;17.73;;
74510;SDS011;62991;50.040;18.400;2022-12-07T16:23:15;57.95;;;21.58;;
74510;SDS011;62991;50.040;18.400;2022-12-07T16:26:17;65.22;;;23.92;;
74510;SDS011;62991;50.040;18.400;2022-12-07T16:29:20;66.13;;;22.42;;
74510;SDS011;62991;50.040;18.400;2022-12-07T16:32:22;26.58;;;12.70;;
74510;SDS011;62991;50.040;18.400;2022-12-07T16:35:22;42.85;;;14.98;;
74510;SDS011;62991;50.040;18.400;2022-12-07T16:38:23;40.60;;;12.18;;
74510;SDS011;62991;50.040;18.400;2022-12-07T16:41:24;41.70;;;17.30;;
74510;SDS011;62991;50.040;18.400;2022-12-07T16:44:24;48.38;;;13.57;;
74510;SDS011;62991;50.040;18.400;2022-12-07T16:47:25;59.80;;;18.38;;
74510;SDS011;62991;50.040;18.400;2022-12-07T16:50:26;28.98;;;12.98;;
74510;SDS011;62991;50.040;18.400;2022-12-07T16:53:26;21.40;;;8.98;;
74510;SDS011;62991;50.040;18.400;2022-12-07T16:56:27;21.08;;;7.65;;
74510;SDS011;62991;50.040;18.400;2022-12-07T16:59:29;26.65;;;10.68;;
74510;SDS011;62991;50.040;18.400;2022-12-07T17:02:29;19.27;;;9.48;;
74510;SDS011;62991;50.040;18.400;2022-12-07T17:05:30;11.10;;;5.10;;
74510;SDS011;62991;50.040;18.400;2022-12-07T17:08:31;18.60;;;8.52;;
74510;SDS011;62991;50.040;18.400;2022-12-07T17:11:31;21.92;;;8.68;;
74510;SDS011;62991;50.040;18.400;2022-12-07T17:14:32;10.18;;;5.00;;
74510;SDS011;62991;50.040;18.400;2022-12-07T17:17:53;5.95;;;3.42;;
74510;SDS011;62991;50.040;18.400;2022-12-07T17:20:55;16.52;;;4.93;;
74510;SDS011;62991;50.040;18.400;2022-12-07T17:24:09;9.38;;;5.18;;
74510;SDS011;62991;50.040;18.400;2022-12-07T17:27:11;7.97;;;2.60;;
74510;SDS011;62991;50.040;18.400;2022-12-07T17:30:12;8.68;;;3.72;;
74510;SDS011;62991;50.040;18.400;2022-12-07T17:33:14;8.68;;;3.63;;
74510;SDS011;62991;50.040;18.400;2022-12-07T17:39:17;11.43;;;5.65;;
74510;SDS011;62991;50.040;18.400;2022-12-07T17:42:19;6.85;;;4.35;;
74510;SDS011;62991;50.040;18.400;2022-12-07T17:45:39;17.90;;;7.00;;
74510;SDS011;62991;50.040;18.400;2022-12-07T17:48:39;31.90;;;9.35;;
74510;SDS011;62991;50.040;18.400;2022-12-07T17:51:40;15.65;;;7.35;;
74510;SDS011;62991;50.040;18.400;2022-12-07T17:55:00;15.90;;;6.00;;
74510;SDS011;62991;50.040;18.400;2022-12-07T17:58:00;11.10;;;2.47;;
74510;SDS011;62991;50.040;18.400;2022-12-07T18:01:01;10.82;;;5.28;;
74510;SDS011;62991;50.040;18.400;2022-12-07T18:04:07;23.60;;;9.02;;
74510;SDS011;62991;50.040;18.400;2022-12-07T18:07:08;21.52;;;7.57;;
74510;SDS011;62991;50.040;18.400;2022-12-07T18:10:09;27.15;;;9.23;;
74510;SDS011;62991;50.040;18.400;2022-12-07T18:13:10;26.27;;;9.90;;
74510;SDS011;62991;50.040;18.400;2022-12-07T18:16:30;29.45;;;10.70;;
74510;SDS011;62991;50.040;18.400;2022-12-07T18:19:33;14.55;;;5.47;;
74510;SDS011;62991;50.040;18.400;2022-12-07T18:22:36;21.23;;;7.00;;
74510;SDS011;62991;50.040;18.400;2022-12-07T18:25:38;13.02;;;5.55;;
74510;SDS011;62991;50.040;18.400;2022-12-07T18:28:42;20.42;;;8.02;;
74510;SDS011;62991;50.040;18.400;2022-12-07T18:31:44;20.92;;;6.82;;
74510;SDS011;62991;50.040;18.400;2022-12-07T18:34:46;12.65;;;5.82;;
74510;SDS011;62991;50.040;18.400;2022-12-07T18:37:47;14.45;;;6.85;;
74510;SDS011;62991;50.040;18.400;2022-12-07T18:40:47;10.98;;;3.70;;
74510;SDS011;62991;50.040;18.400;2022-12-07T18:43:48;12.07;;;3.20;;
74510;SDS011;62991;50.040;18.400;2022-12-07T18:46:49;17.17;;;5.55;;
74510;SDS011;62991;50.040;18.400;2022-12-07T18:49:49;18.27;;;4.78;;
74510;SDS011;62991;50.040;18.400;2022-12-07T18:52:50;22.88;;;7.07;;
74510;SDS011;62991;50.040;18.400;2022-12-07T18:55:51;10.45;;;5.47;;
74510;SDS011;62991;50.040;18.400;2022-12-07T18:59:11;9.40;;;4.63;;
74510;SDS011;62991;50.040;18.400;2022-12-07T19:02:31;8.73;;;3.72;;
74510;SDS011;62991;50.040;18.400;2022-12-07T19:05:32;16.92;;;5.18;;
74510;SDS011;62991;50.040;18.400;2022-12-07T19:08:33;17.33;;;6.53;;
74510;SDS011;62991;50.040;18.400;2022-12-07T19:11:35;12.88;;;5.97;;
74510;SDS011;62991;50.040;18.400;2022-12-07T19:14:48;16.40;;;5.20;;
74510;SDS011;62991;50.040;18.400;2022-12-07T19:17:49;12.32;;;5.95;;
74510;SDS011;62991;50.040;18.400;2022-12-07T19:20:49;10.18;;;4.78;;
74510;SDS011;62991;50.040;18.400;2022-12-07T19:23:50;16.02;;;6.22;;
74510;SDS011;62991;50.040;18.400;2022-12-07T19:26:51;14.60;;;4.97;;
74510;SDS011;62991;50.040;18.400;2022-12-07T19:29:52;16.23;;;5.78;;
74510;SDS011;62991;50.040;18.400;2022-12-07T19:32:52;9.55;;;4.95;;
74510;SDS011;62991;50.040;18.400;2022-12-07T19:35:53;15.13;;;6.13;;
74510;SDS011;62991;50.040;18.400;2022-12-07T19:38:53;13.27;;;4.65;;
74510;SDS011;62991;50.040;18.400;2022-12-07T19:41:54;12.85;;;5.95;;
74510;SDS011;62991;50.040;18.400;2022-12-07T19:44:56;8.73;;;3.58;;
74510;SDS011;62991;50.040;18.400;2022-12-07T19:47:56;7.40;;;2.85;;
74510;SDS011;62991;50.040;18.400;2022-12-07T19:51:03;12.55;;;5.15;;
74510;SDS011;62991;50.040;18.400;2022-12-07T19:54:04;6.93;;;2.58;;
74510;SDS011;62991;50.040;18.400;2022-12-07T19:57:05;11.60;;;6.85;;
74510;SDS011;62991;50.040;18.400;2022-12-07T20:00:08;20.08;;;6.10;;
74510;SDS011;62991;50.040;18.400;2022-12-07T20:03:09;22.67;;;7.20;;
74510;SDS011;62991;50.040;18.400;2022-12-07T20:06:11;21.50;;;6.47;;